Time;durP1;ratioP1;P1;durP2;ratioP2;P2;SDS_P1;SDS_P2;PMS_P1;PMS_P2;Temp;Humidity;BMP_temperature;BMP_pressure;BME280_temperature;BME280_humidity;BME280_pressure;Samples;Min_cycle;Max_cycle;Signal;HPM_P1;HPM_P2
2022/10/24 00:01:21;;;;;;;18.55;14.77;;;;;;;;;;5134166;27;20027;-81
2022/10/24 00:03:48;;;;;;;17.80;14.27;;;;;;;;;;5133934;27;20031;-81
2022/10/24 00:06:14;;;;;;;19.65;16.85;;;;;;;;;;5134393;27;20031;-81
2022/10/24 00:08:41;;;;;;;19.17;15.00;;;;;;;;;;5134073;27;20106;-81
2022/10/24 00:11:08;;;;;;;17.90;15.00;;;;;;;;;;5134016;27;20023;-81
2022/10/24 00:13:34;;;;;;;22.85;15.95;;;;;;;;;;5134018;27;20492;-81
2022/10/24 00:16:00;;;;;;;17.73;15.68;;;;;;;;;;5133873;27;20019;-81
2022/10/24 00:18:26;;;;;;;20.27;16.58;;;;;;;;;;5133963;27;20054;-81
2022/10/24 00:20:52;;;;;;;20.92;15.00;;;;;;;;;;5133651;27;20373;-81
2022/10/24 00:23:19;;;;;;;18.35;15.52;;;;;;;;;;5133933;27;20087;-81
2022/10/24 00:25:45;;;;;;;21.20;16.80;;;;;;;;;;5133854;27;20043;-81
2022/10/24 00:28:11;;;;;;;21.17;16.08;;;;;;;;;;5133266;27;20023;-81
2022/10/24 00:30:37;;;;;;;19.58;15.93;;;;;;;;;;5133673;27;20023;-81
2022/10/24 00:33:03;;;;;;;20.13;16.10;;;;;;;;;;5133275;27;20016;-81
2022/10/24 00:35:29;;;;;;;20.38;16.65;;;;;;;;;;5133294;27;20389;-81
2022/10/24 00:37:55;;;;;;;17.10;15.07;;;;;;;;;;5133409;27;20395;-81
2022/10/24 00:40:21;;;;;;;18.77;15.07;;;;;;;;;;5133063;27;20023;-81
2022/10/24 00:42:48;;;;;;;19.45;16.48;;;;;;;;;;5132747;27;20031;-81
2022/10/24 00:45:33;;;;;;;17.88;15.13;;;;;;;;;;5114302;28;20019;-81
2022/10/24 00:47:59;;;;;;;20.52;16.17;;;;;;;;;;5131044;27;20019;-81
2022/10/24 00:50:25;;;;;;;20.08;15.40;;;;;;;;;;5114454;28;20390;-81
2022/10/24 00:52:51;;;;;;;20.70;17.23;;;;;;;;;;5130258;28;20046;-81
2022/10/24 00:55:17;;;;;;;20.92;16.15;;;;;;;;;;5133626;28;20027;-81
2022/10/24 00:57:52;;;;;;;18.80;14.90;;;;;;;;;;5133320;28;20019;-82
2022/10/24 01:00:29;;;;;;;20.15;15.98;;;;;;;;;;5115046;28;20023;-81
2022/10/24 01:02:55;;;;;;;21.42;14.95;;;;;;;;;;5114802;28;20039;-81
2022/10/24 01:05:22;;;;;;;18.92;15.70;;;;;;;;;;5133391;28;20102;-81
2022/10/24 01:07:49;;;;;;;20.20;15.15;;;;;;;;;;5133185;28;20027;-81
2022/10/24 01:10:34;;;;;;;18.23;14.65;;;;;;;;;;5133318;28;20466;-81
2022/10/24 01:13:00;;;;;;;;;;;;;;;;;;5133742;28;20023;-81
2022/10/24 01:15:38;;;;;;;20.88;14.75;;;;;;;;;;5132984;28;19907;-81
2022/10/24 01:18:04;;;;;;;19.23;14.75;;;;;;;;;;5133262;28;20031;-81
2022/10/24 01:20:49;;;;;;;19.15;15.55;;;;;;;;;;5132633;28;20115;-82
2022/10/24 01:23:15;;;;;;;19.60;15.02;;;;;;;;;;5113834;28;20500;-81
2022/10/24 01:25:44;;;;;;;17.83;13.73;;;;;;;;;;5133133;28;20359;-81
2022/10/24 01:28:25;;;;;;;21.55;16.98;;;;;;;;;;5133068;28;20474;-81
2022/10/24 01:31:03;;;;;;;20.33;15.93;;;;;;;;;;5132793;28;20027;-81
2022/10/24 01:33:34;;;;;;;28.83;19.98;;;;;;;;;;5133186;28;20027;-81
2022/10/24 01:36:05;;;;;;;27.50;19.27;;;;;;;;;;5133128;28;20019;-82
2022/10/24 01:38:35;;;;;;;26.75;19.45;;;;;;;;;;5132659;27;20048;-81
2022/10/24 01:41:12;;;;;;;21.80;18.38;;;;;;;;;;5135467;27;20125;-81
2022/10/24 01:43:44;;;;;;;20.58;16.55;;;;;;;;;;5136838;27;20035;-81
2022/10/24 01:46:17;;;;;;;19.38;16.25;;;;;;;;;;5136866;27;20034;-81
2022/10/24 01:48:45;;;;;;;19.27;16.10;;;;;;;;;;5136869;27;20477;-81
2022/10/24 01:51:12;;;;;;;20.83;16.38;;;;;;;;;;5136408;27;20058;-81
2022/10/24 01:53:39;;;;;;;24.23;16.75;;;;;;;;;;5136702;27;20110;-81
2022/10/24 01:56:05;;;;;;;19.40;15.60;;;;;;;;;;5136611;27;20023;-81
2022/10/24 01:58:32;;;;;;;23.02;16.10;;;;;;;;;;5136515;27;20030;-81
2022/10/24 02:00:59;;;;;;;34.95;29.83;;;;;;;;;;5136600;27;20484;-81
2022/10/24 02:03:35;;;;;;;19.80;15.82;;;;;;;;;;5136472;27;20031;-81
2022/10/24 02:06:09;;;;;;;41.17;32.17;;;;;;;;;;5136470;27;20462;-81
2022/10/24 02:08:40;;;;;;;24.63;18.45;;;;;;;;;;5135992;27;20015;-81
2022/10/24 02:11:07;;;;;;;24.63;18.35;;;;;;;;;;5136194;27;20067;-81
2022/10/24 02:13:36;;;;;;;23.45;17.90;;;;;;;;;;5136611;27;20023;-81
2022/10/24 02:16:02;;;;;;;21.85;15.43;;;;;;;;;;5136042;27;20023;-81
2022/10/24 02:18:29;;;;;;;18.48;15.77;;;;;;;;;;5136419;27;20466;-81
2022/10/24 02:20:55;;;;;;;20.48;15.73;;;;;;;;;;5136183;27;20023;-81
2022/10/24 02:23:42;;;;;;;17.83;15.63;;;;;;;;;;5136305;27;20039;-81
2022/10/24 02:26:12;;;;;;;19.60;16.55;;;;;;;;;;5136168;27;20035;-81
2022/10/24 02:28:40;;;;;;;19.58;15.98;;;;;;;;;;5136168;27;20027;-81
2022/10/24 02:31:12;;;;;;;20.08;14.63;;;;;;;;;;5136195;27;20481;-81
2022/10/24 02:33:39;;;;;;;18.08;15.50;;;;;;;;;;5135848;27;20363;-81
2022/10/24 02:36:07;;;;;;;19.45;14.98;;;;;;;;;;5117671;27;20050;-81
2022/10/24 02:38:35;;;;;;;21.50;16.08;;;;;;;;;;5135827;27;20083;-81
2022/10/24 02:41:02;;;;;;;16.90;14.25;;;;;;;;;;5135866;27;20099;-81
2022/10/24 02:43:29;;;;;;;17.38;14.43;;;;;;;;;;5135865;27;20039;-81
2022/10/24 02:45:58;;;;;;;18.48;15.48;;;;;;;;;;5135845;27;20027;-82
2022/10/24 02:48:27;;;;;;;20.10;15.25;;;;;;;;;;5135732;27;20389;-81
2022/10/24 02:50:53;;;;;;;19.10;15.35;;;;;;;;;;5135064;27;20059;-81
2022/10/24 02:53:21;;;;;;;17.17;14.52;;;;;;;;;;5135659;27;20031;-81
2022/10/24 02:55:47;;;;;;;21.98;17.75;;;;;;;;;;5117007;27;20027;-81
2022/10/24 02:58:13;;;;;;;20.02;18.02;;;;;;;;;;5135532;27;20492;-81
2022/10/24 03:00:39;;;;;;;18.38;15.63;;;;;;;;;;5116451;27;20023;-81
2022/10/24 03:03:05;;;;;;;20.10;17.70;;;;;;;;;;5135319;27;20126;-82
2022/10/24 03:05:31;;;;;;;22.45;19.20;;;;;;;;;;5135219;27;20397;-82
2022/10/24 03:07:57;;;;;;;26.45;21.45;;;;;;;;;;5135283;27;20091;-81
2022/10/24 03:10:23;;;;;;;25.25;22.52;;;;;;;;;;5135243;27;20037;-81
2022/10/24 03:12:50;;;;;;;23.10;17.60;;;;;;;;;;5134919;27;20470;-82
2022/10/24 03:15:16;;;;;;;23.48;17.00;;;;;;;;;;5135023;27;20066;-82
2022/10/24 03:17:42;;;;;;;18.10;15.85;;;;;;;;;;5134813;27;20023;-82
2022/10/24 03:20:08;;;;;;;21.40;15.77;;;;;;;;;;5135104;27;20059;-82
2022/10/24 03:22:35;;;;;;;20.10;16.23;;;;;;;;;;5134834;27;20485;-82
2022/10/24 03:25:02;;;;;;;18.60;15.43;;;;;;;;;;5134895;27;20027;-82
2022/10/24 03:27:29;;;;;;;18.92;16.13;;;;;;;;;;5134998;27;20106;-82
2022/10/24 03:29:55;;;;;;;20.15;15.60;;;;;;;;;;5134527;27;20495;-82
2022/10/24 03:32:21;;;;;;;22.02;16.33;;;;;;;;;;5134781;27;20028;-82
2022/10/24 03:34:47;;;;;;;18.27;16.15;;;;;;;;;;5134529;27;20027;-81
2022/10/24 03:37:13;;;;;;;23.77;19.08;;;;;;;;;;5134731;27;20042;-81
2022/10/24 03:39:39;;;;;;;20.20;16.73;;;;;;;;;;5134713;27;20033;-81
2022/10/24 03:42:05;;;;;;;19.77;15.68;;;;;;;;;;5116149;27;20084;-81
2022/10/24 03:44:31;;;;;;;21.08;15.77;;;;;;;;;;5134592;27;20426;-81
2022/10/24 03:46:57;;;;;;;17.95;15.40;;;;;;;;;;5134382;27;20026;-81
2022/10/24 03:49:24;;;;;;;18.58;16.02;;;;;;;;;;5134607;27;20038;-82
2022/10/24 03:51:50;;;;;;;20.27;15.73;;;;;;;;;;5134013;27;20141;-81
2022/10/24 03:54:16;;;;;;;19.75;15.13;;;;;;;;;;5134387;27;20112;-81
2022/10/24 03:56:43;;;;;;;23.40;16.20;;;;;;;;;;5134426;27;20492;-81
2022/10/24 03:59:09;;;;;;;29.05;20.85;;;;;;;;;;5115750;27;20056;-81
2022/10/24 04:01:35;;;;;;;27.65;22.38;;;;;;;;;;5134357;27;20055;-82
2022/10/24 04:04:01;;;;;;;28.25;19.55;;;;;;;;;;5133233;27;20020;-81
2022/10/24 04:06:27;;;;;;;19.42;14.55;;;;;;;;;;5134324;27;20019;-81
2022/10/24 04:08:53;;;;;;;17.52;14.02;;;;;;;;;;5133919;27;20038;-82
2022/10/24 04:11:19;;;;;;;23.38;17.80;;;;;;;;;;5134217;27;20465;-81
2022/10/24 04:13:45;;;;;;;22.85;18.27;;;;;;;;;;5133961;27;20071;-81
2022/10/24 04:16:11;;;;;;;23.13;19.25;;;;;;;;;;5133859;27;20027;-81
2022/10/24 04:18:37;;;;;;;25.77;19.77;;;;;;;;;;5134061;27;20042;-81
2022/10/24 04:21:04;;;;;;;21.55;17.75;;;;;;;;;;5133789;27;20054;-81
2022/10/24 04:23:34;;;;;;;22.08;19.42;;;;;;;;;;5133983;27;20402;-81
2022/10/24 04:26:00;;;;;;;27.02;19.50;;;;;;;;;;5133690;27;20521;-81
2022/10/24 04:28:28;;;;;;;26.98;23.38;;;;;;;;;;5133846;27;20038;-81
2022/10/24 04:30:57;;;;;;;28.55;22.38;;;;;;;;;;5133670;27;20027;-81
2022/10/24 04:33:24;;;;;;;28.08;21.52;;;;;;;;;;5133797;27;20026;-81
2022/10/24 04:35:50;;;;;;;24.83;20.40;;;;;;;;;;5133662;27;20058;-81
2022/10/24 04:38:17;;;;;;;26.30;20.67;;;;;;;;;;5133632;27;20484;-81
2022/10/24 04:40:49;;;;;;;27.52;20.35;;;;;;;;;;5133652;27;20462;-81
2022/10/24 04:43:16;;;;;;;24.88;21.33;;;;;;;;;;5133672;27;20525;-82
2022/10/24 04:45:42;;;;;;;25.38;20.63;;;;;;;;;;5133679;27;20065;-82
2022/10/24 04:48:08;;;;;;;24.30;21.33;;;;;;;;;;5133356;27;20441;-81
2022/10/24 04:50:34;;;;;;;21.02;18.13;;;;;;;;;;5133444;27;20027;-81
2022/10/24 04:53:00;;;;;;;22.73;18.27;;;;;;;;;;5133343;27;20067;-81
2022/10/24 04:55:27;;;;;;;20.95;16.88;;;;;;;;;;5133471;28;20389;-81
2022/10/24 04:57:53;;;;;;;20.60;17.02;;;;;;;;;;5133342;28;20023;-82
2022/10/24 05:00:19;;;;;;;22.60;18.58;;;;;;;;;;5133405;28;20020;-82
2022/10/24 05:02:45;;;;;;;21.92;17.67;;;;;;;;;;5133386;28;20114;-82
2022/10/24 05:05:12;;;;;;;24.58;18.83;;;;;;;;;;5133215;28;20739;-82
2022/10/24 05:07:38;;;;;;;21.17;17.48;;;;;;;;;;5133385;28;20440;-82
2022/10/24 05:10:04;;;;;;;21.10;17.48;;;;;;;;;;5133025;28;20491;-82
2022/10/24 05:12:31;;;;;;;24.80;20.85;;;;;;;;;;5133451;28;20023;-81
2022/10/24 05:14:57;;;;;;;37.22;27.23;;;;;;;;;;5135740;27;20069;-81
2022/10/24 05:17:23;;;;;;;43.10;30.70;;;;;;;;;;5137420;27;20050;-82
2022/10/24 05:19:49;;;;;;;39.60;31.00;;;;;;;;;;5137556;27;20019;-81
2022/10/24 05:22:15;;;;;;;52.35;34.03;;;;;;;;;;5137199;27;20027;-81
2022/10/24 05:24:41;;;;;;;48.60;32.78;;;;;;;;;;5137383;27;20025;-81
2022/10/24 05:27:07;;;;;;;35.17;25.05;;;;;;;;;;5137072;27;20466;-81
2022/10/24 05:29:33;;;;;;;21.63;19.33;;;;;;;;;;5137277;27;20023;-82
2022/10/24 05:31:59;;;;;;;21.90;18.60;;;;;;;;;;5137162;27;20469;-81
2022/10/24 05:34:26;;;;;;;25.95;19.95;;;;;;;;;;5118623;27;20030;-82
2022/10/24 05:36:52;;;;;;;23.73;18.63;;;;;;;;;;5137057;27;20165;-82
2022/10/24 05:39:18;;;;;;;23.25;19.40;;;;;;;;;;5136817;27;20034;-81
2022/10/24 05:41:44;;;;;;;24.90;19.50;;;;;;;;;;5137016;27;20373;-81
2022/10/24 05:44:11;;;;;;;24.60;20.42;;;;;;;;;;5136773;27;20023;-81
2022/10/24 05:46:37;;;;;;;33.22;24.30;;;;;;;;;;5137064;27;20031;-81
2022/10/24 05:49:04;;;;;;;27.42;23.20;;;;;;;;;;5136929;27;20466;-81
2022/10/24 05:51:30;;;;;;;25.55;22.63;;;;;;;;;;5136589;27;20047;-81
2022/10/24 05:53:57;;;;;;;45.42;36.88;;;;;;;;;;5136798;27;20031;-81
2022/10/24 05:56:23;;;;;;;95.82;79.93;;;;;;;;;;5136581;27;20023;-81
2022/10/24 05:58:49;;;;;;;117.97;101.38;;;;;;;;;;5136759;27;20037;-82
2022/10/24 06:01:16;;;;;;;111.43;99.50;;;;;;;;;;5136345;27;20031;-81
2022/10/24 06:03:42;;;;;;;66.15;56.42;;;;;;;;;;5136695;27;20406;-81
2022/10/24 06:06:09;;;;;;;84.25;73.60;;;;;;;;;;5136447;27;20076;-82
2022/10/24 06:08:35;;;;;;;68.75;61.50;;;;;;;;;;5117992;27;20033;-81
2022/10/24 06:11:02;;;;;;;53.65;43.20;;;;;;;;;;5136441;27;20504;-82
2022/10/24 06:13:29;;;;;;;48.83;42.70;;;;;;;;;;5136205;27;20019;-81
2022/10/24 06:15:55;;;;;;;47.00;40.78;;;;;;;;;;5136323;27;20027;-81
2022/10/24 06:18:21;;;;;;;44.47;36.38;;;;;;;;;;5136090;27;20070;-81
2022/10/24 06:20:47;;;;;;;46.25;40.85;;;;;;;;;;5136211;27;20504;-81
2022/10/24 06:23:13;;;;;;;51.35;42.17;;;;;;;;;;5136040;27;20058;-81
2022/10/24 06:25:42;;;;;;;54.70;44.13;;;;;;;;;;5135160;27;20502;-81
2022/10/24 06:28:08;;;;;;;53.13;42.13;;;;;;;;;;5136019;27;20048;-82
2022/10/24 06:30:35;;;;;;;49.65;41.05;;;;;;;;;;5135865;27;20047;-81
2022/10/24 06:33:02;;;;;;;48.75;36.50;;;;;;;;;;5135914;27;20045;-81
2022/10/24 06:35:28;;;;;;;53.88;43.05;;;;;;;;;;5135714;27;20063;-81
2022/10/24 06:37:54;;;;;;;49.22;42.58;;;;;;;;;;5136082;27;20028;-82
2022/10/24 06:40:20;;;;;;;140.63;126.55;;;;;;;;;;5135784;27;20027;-81
2022/10/24 06:42:46;;;;;;;142.77;128.32;;;;;;;;;;5135901;27;20039;-81
2022/10/24 06:45:13;;;;;;;99.43;88.75;;;;;;;;;;5135791;27;20110;-81
2022/10/24 06:47:39;;;;;;;69.70;59.40;;;;;;;;;;5135600;27;20072;-81
2022/10/24 06:50:05;;;;;;;60.75;53.92;;;;;;;;;;5135539;27;20437;-81
2022/10/24 06:52:31;;;;;;;55.38;49.13;;;;;;;;;;5135353;27;20128;-81
2022/10/24 06:54:58;;;;;;;52.17;42.47;;;;;;;;;;5135613;27;20034;-81
2022/10/24 06:57:24;;;;;;;71.78;58.03;;;;;;;;;;5135445;27;20031;-81
2022/10/24 06:59:50;;;;;;;73.95;59.03;;;;;;;;;;5135410;27;20054;-81
2022/10/24 07:02:16;;;;;;;45.25;39.08;;;;;;;;;;5135378;27;20059;-81
2022/10/24 07:04:42;;;;;;;41.83;33.67;;;;;;;;;;5135107;27;20027;-81
2022/10/24 07:07:13;;;;;;;34.80;28.58;;;;;;;;;;5135221;27;20103;-81
2022/10/24 07:09:39;;;;;;;35.70;28.75;;;;;;;;;;5135100;27;20026;-81
2022/10/24 07:12:06;;;;;;;36.90;28.83;;;;;;;;;;5135008;27;20094;-81
2022/10/24 07:14:32;;;;;;;37.30;31.02;;;;;;;;;;5134934;27;20039;-81
2022/10/24 07:16:58;;;;;;;41.55;32.53;;;;;;;;;;5134979;27;20046;-81
2022/10/24 07:19:24;;;;;;;40.22;32.63;;;;;;;;;;5135043;27;20509;-80
2022/10/24 07:21:50;;;;;;;41.67;34.90;;;;;;;;;;5134920;27;20046;-80
2022/10/24 07:24:16;;;;;;;44.17;36.35;;;;;;;;;;5134868;27;20110;-80
2022/10/24 07:26:42;;;;;;;41.75;34.95;;;;;;;;;;5134810;27;20027;-80
2022/10/24 07:29:08;;;;;;;42.47;34.70;;;;;;;;;;5134861;27;20047;-80
2022/10/24 07:31:35;;;;;;;42.70;33.53;;;;;;;;;;5134523;27;20023;-81
2022/10/24 07:34:02;;;;;;;32.95;26.98;;;;;;;;;;5134798;27;20050;-81
2022/10/24 07:36:29;;;;;;;29.33;24.23;;;;;;;;;;5134667;27;20027;-81
2022/10/24 07:38:56;;;;;;;28.30;23.35;;;;;;;;;;5134448;27;20023;-80
2022/10/24 07:41:23;;;;;;;40.97;31.40;;;;;;;;;;5134491;27;20102;-81
2022/10/24 07:43:49;;;;;;;40.90;33.00;;;;;;;;;;5134384;27;20534;-81
2022/10/24 07:46:17;;;;;;;39.85;31.95;;;;;;;;;;5134428;27;20031;-81
2022/10/24 07:48:43;;;;;;;36.65;31.48;;;;;;;;;;5134243;27;20362;-81
2022/10/24 07:51:11;;;;;;;33.72;28.23;;;;;;;;;;5134246;27;20055;-81
2022/10/24 07:53:37;;;;;;;35.28;29.40;;;;;;;;;;5134139;27;20031;-81
2022/10/24 07:56:07;;;;;;;34.63;29.80;;;;;;;;;;5134379;27;20024;-81
2022/10/24 07:58:34;;;;;;;35.38;28.60;;;;;;;;;;5134196;27;20023;-81
2022/10/24 08:01:07;;;;;;;35.38;29.25;;;;;;;;;;5134351;27;20065;-81
2022/10/24 08:03:33;;;;;;;25.90;21.27;;;;;;;;;;5133931;27;20470;-81
2022/10/24 08:05:59;;;;;;;23.83;18.77;;;;;;;;;;5134247;27;20020;-81
2022/10/24 08:08:25;;;;;;;24.35;19.40;;;;;;;;;;5133955;27;20023;-81
2022/10/24 08:10:52;;;;;;;19.15;16.77;;;;;;;;;;5133952;27;20481;-81
2022/10/24 08:13:18;;;;;;;19.42;16.38;;;;;;;;;;5133893;27;20497;-81
2022/10/24 08:15:44;;;;;;;23.58;17.83;;;;;;;;;;5133872;27;20015;-81
2022/10/24 08:18:10;;;;;;;25.50;19.92;;;;;;;;;;5133850;27;20443;-81
2022/10/24 08:20:36;;;;;;;22.25;17.05;;;;;;;;;;5133657;27;20019;-80
2022/10/24 08:23:02;;;;;;;18.15;15.60;;;;;;;;;;5133887;27;20039;-81
2022/10/24 08:25:28;;;;;;;17.70;15.07;;;;;;;;;;5133800;27;20024;-80
2022/10/24 08:27:54;;;;;;;18.90;15.40;;;;;;;;;;5133577;27;20101;-81
2022/10/24 08:30:20;;;;;;;19.85;15.75;;;;;;;;;;5133798;27;20023;-81
2022/10/24 08:32:47;;;;;;;20.58;16.40;;;;;;;;;;5133536;27;20027;-80
2022/10/24 08:35:15;;;;;;;18.65;14.02;;;;;;;;;;5133547;27;20028;-81
2022/10/24 08:37:41;;;;;;;16.10;13.30;;;;;;;;;;5133476;27;20027;-80
2022/10/24 08:40:11;;;;;;;14.95;11.88;;;;;;;;;;5133567;27;20027;-81
2022/10/24 08:42:38;;;;;;;13.90;11.55;;;;;;;;;;5133118;27;20042;-80
2022/10/24 08:45:09;;;;;;;15.07;11.35;;;;;;;;;;5133604;27;20027;-81
2022/10/24 08:47:39;;;;;;;14.57;12.00;;;;;;;;;;5119941;27;20076;-80
2022/10/24 08:50:05;;;;;;;12.18;9.85;;;;;;;;;;5112509;28;20382;-81
2022/10/24 08:52:50;;;;;;;18.50;12.15;;;;;;;;;;5112561;28;20576;-80
2022/10/24 08:55:16;;;;;;;;;;;;;;;;;;5113149;28;20023;-81
2022/10/24 08:57:45;;;;;;;13.57;10.98;;;;;;;;;;5112739;28;19911;-80
2022/10/24 09:00:30;;;;;;;15.30;10.60;;;;;;;;;;5112765;28;20016;-80
2022/10/24 09:03:06;;;;;;;13.73;10.88;;;;;;;;;;5112674;28;20479;-81
2022/10/24 09:05:37;;;;;;;16.25;11.45;;;;;;;;;;5112838;28;20031;-81
2022/10/24 09:08:20;;;;;;;16.48;13.10;;;;;;;;;;5112630;28;20398;-80
2022/10/24 09:10:48;;;;;;;13.98;11.32;;;;;;;;;;5112613;28;20024;-80
2022/10/24 09:13:15;;;;;;;14.80;11.30;;;;;;;;;;5094437;28;20028;-80
2022/10/24 09:15:43;;;;;;;15.10;11.20;;;;;;;;;;5112515;28;20032;-80
2022/10/24 09:18:15;;;;;;;14.35;11.18;;;;;;;;;;5112708;28;20027;-80
2022/10/24 09:20:41;;;;;;;15.13;10.65;;;;;;;;;;5112562;28;20020;-81
2022/10/24 09:23:07;;;;;;;14.30;9.82;;;;;;;;;;5112603;28;20158;-81
2022/10/24 09:25:35;;;;;;;12.57;10.20;;;;;;;;;;5112465;28;20381;-81
2022/10/24 09:28:02;;;;;;;13.63;11.13;;;;;;;;;;5112696;28;20031;-81
2022/10/24 09:30:29;;;;;;;14.88;9.98;;;;;;;;;;5112424;28;20115;-80
2022/10/24 09:32:56;;;;;;;13.75;11.10;;;;;;;;;;5112465;28;20034;-81
2022/10/24 09:35:27;;;;;;;13.85;10.07;;;;;;;;;;5112273;28;20102;-80
2022/10/24 09:37:57;;;;;;;18.65;14.60;;;;;;;;;;5112321;28;20020;-80
2022/10/24 09:40:29;;;;;;;15.40;10.60;;;;;;;;;;5112454;28;20055;-80
2022/10/24 09:43:00;;;;;;;14.93;8.57;;;;;;;;;;5112245;28;20028;-80
2022/10/24 09:45:31;;;;;;;12.70;8.82;;;;;;;;;;5112201;28;20024;-80
2022/10/24 09:47:58;;;;;;;10.27;7.95;;;;;;;;;;5112300;28;20133;-80
2022/10/24 09:50:24;;;;;;;10.77;8.15;;;;;;;;;;5112114;28;20382;-80
2022/10/24 09:52:52;;;;;;;9.52;6.53;;;;;;;;;;5112212;28;20083;-79
2022/10/24 09:55:18;;;;;;;9.27;6.15;;;;;;;;;;5112208;28;20024;-80
2022/10/24 09:57:44;;;;;;;8.95;6.80;;;;;;;;;;5111932;28;20111;-80
2022/10/24 10:00:29;;;;;;;12.48;7.00;;;;;;;;;;5112154;28;20419;-80
2022/10/24 10:02:57;;;;;;;9.77;6.57;;;;;;;;;;5115804;28;20110;-80
2022/10/24 10:05:23;;;;;;;8.13;6.32;;;;;;;;;;5115401;28;20068;-80
2022/10/24 10:07:50;;;;;;;9.35;6.20;;;;;;;;;;5115943;28;20099;-80
2022/10/24 10:10:36;;;;;;;10.77;7.65;;;;;;;;;;5115395;28;20020;-80
2022/10/24 10:13:18;;;;;;;8.75;6.53;;;;;;;;;;5115342;28;20028;-80
2022/10/24 10:15:46;;;;;;;8.25;6.60;;;;;;;;;;5115321;28;20027;-80
2022/10/24 10:18:33;;;;;;;9.80;6.38;;;;;;;;;;5097172;28;20386;-80
2022/10/24 10:20:59;;;;;;;9.00;6.53;;;;;;;;;;5115227;28;20083;-80
2022/10/24 10:23:44;;;;;;;8.02;6.65;;;;;;;;;;5115313;28;20031;-80
2022/10/24 10:26:22;;;;;;;8.68;6.22;;;;;;;;;;5115301;28;20106;-80
2022/10/24 10:28:53;;;;;;;9.13;6.63;;;;;;;;;;5115265;28;20098;-80
2022/10/24 10:31:22;;;;;;;10.10;7.55;;;;;;;;;;5115054;28;20027;-80
2022/10/24 10:34:06;;;;;;;9.48;6.45;;;;;;;;;;5115161;28;20031;-80
2022/10/24 10:36:32;;;;;;;;;;;;;;;;;;5115684;28;20081;-80
2022/10/24 10:38:58;;;;;;;10.27;6.13;;;;;;;;;;5114886;28;19904;-80
2022/10/24 10:41:37;;;;;;;8.75;6.90;;;;;;;;;;5114827;28;20031;-80
2022/10/24 10:44:21;;;;;;;8.48;5.93;;;;;;;;;;5115023;28;20028;-80
2022/10/24 10:46:48;;;;;;;;;;;;;;;;;;5115420;28;20023;-80
2022/10/24 10:49:16;;;;;;;9.48;7.13;;;;;;;;;;5115003;28;20282;-80
2022/10/24 10:51:43;;;;;;;9.25;6.68;;;;;;;;;;5114681;28;20075;-80
2022/10/24 10:54:12;;;;;;;12.63;6.80;;;;;;;;;;5114981;28;20098;-80
2022/10/24 10:56:58;;;;;;;9.32;6.68;;;;;;;;;;5114647;28;20042;-80
2022/10/24 10:59:45;;;;;;;9.20;6.70;;;;;;;;;;5100762;28;20035;-80
2022/10/24 11:02:29;;;;;;;8.30;5.90;;;;;;;;;;5114400;28;20130;-80
2022/10/24 11:05:14;;;;;;;11.75;6.80;;;;;;;;;;5114449;28;20027;-79
2022/10/24 11:07:40;;;;;;;;;;;;;;;;;;5114790;28;20028;-80
2022/10/24 11:10:08;;;;;;;12.77;6.35;;;;;;;;;;5114587;28;20173;-79
2022/10/24 11:12:39;;;;;;;10.35;7.13;;;;;;;;;;5113686;28;20051;-79
2022/10/24 11:15:19;;;;;;;7.60;6.47;;;;;;;;;;5114428;28;20028;-80
2022/10/24 11:17:45;;;;;;;11.23;6.97;;;;;;;;;;5114433;28;20114;-80
2022/10/24 11:20:15;;;;;;;8.10;6.20;;;;;;;;;;5114122;28;20102;-80
2022/10/24 11:23:01;;;;;;;8.27;6.03;;;;;;;;;;5095860;28;20494;-80
2022/10/24 11:25:33;;;;;;;6.50;5.03;;;;;;;;;;5100492;28;20043;-80
2022/10/24 11:28:06;;;;;;;9.95;5.47;;;;;;;;;;5113926;28;20080;-80
2022/10/24 11:30:50;;;;;;;10.70;6.00;;;;;;;;;;5114070;28;20488;-80
2022/10/24 11:33:17;;;;;;;;;;;;;;;;;;5114393;28;20054;-80
2022/10/24 11:35:52;;;;;;;8.27;5.10;;;;;;;;;;5095480;28;20270;-80
2022/10/24 11:38:21;;;;;;;8.70;5.00;;;;;;;;;;5113741;28;20030;-80
2022/10/24 11:40:49;;;;;;;18.10;12.48;;;;;;;;;;5113844;28;20451;-80
2022/10/24 11:43:19;;;;;;;8.95;5.53;;;;;;;;;;5113534;28;20496;-80
2022/10/24 11:45:49;;;;;;;8.07;5.90;;;;;;;;;;5113667;28;20028;-79
2022/10/24 11:48:24;;;;;;;14.07;6.78;;;;;;;;;;5113586;28;20062;-79
2022/10/24 11:51:04;;;;;;;8.48;5.45;;;;;;;;;;5113446;28;20533;-81
2022/10/24 11:53:30;;;;;;;10.43;5.65;;;;;;;;;;5113436;28;20084;-80
2022/10/24 11:55:56;;;;;;;8.52;6.00;;;;;;;;;;5113553;28;20080;-80
2022/10/24 11:58:24;;;;;;;9.52;5.63;;;;;;;;;;5113293;28;20102;-80
2022/10/24 12:00:53;;;;;;;8.80;5.57;;;;;;;;;;5113537;28;20089;-80
2022/10/24 12:03:28;;;;;;;9.23;6.20;;;;;;;;;;5113237;28;20028;-80
2022/10/24 12:06:21;;;;;;;10.27;6.47;;;;;;;;;;5113261;28;20115;-80
2022/10/24 12:08:47;;;;;;;10.88;4.57;;;;;;;;;;5094799;28;20016;-80
2022/10/24 12:11:33;;;;;;;15.95;6.95;;;;;;;;;;5113326;28;20023;-80
2022/10/24 12:14:18;;;;;;;8.93;6.10;;;;;;;;;;5113072;28;20462;-80
2022/10/24 12:16:44;;;;;;;9.55;5.75;;;;;;;;;;5113209;28;20055;-80
2022/10/24 12:19:12;;;;;;;6.63;4.85;;;;;;;;;;5112767;28;20501;-80
2022/10/24 12:21:39;;;;;;;11.00;6.85;;;;;;;;;;5112902;28;20039;-80
2022/10/24 12:24:13;;;;;;;9.70;5.60;;;;;;;;;;5112305;28;20022;-80
2022/10/24 12:26:42;;;;;;;13.30;5.90;;;;;;;;;;5113027;28;20084;-80
2022/10/24 12:29:18;;;;;;;9.60;4.90;;;;;;;;;;5112590;28;20545;-80
2022/10/24 12:31:44;;;;;;;6.95;4.40;;;;;;;;;;5112692;28;20099;-80
2022/10/24 12:34:21;;;;;;;9.38;4.50;;;;;;;;;;5112977;28;20032;-80
2022/10/24 12:37:08;;;;;;;11.48;5.88;;;;;;;;;;5112527;28;20036;-80
2022/10/24 12:39:36;;;;;;;8.80;4.75;;;;;;;;;;5112595;28;20057;-80
2022/10/24 12:42:02;;;;;;;8.25;4.55;;;;;;;;;;5112691;28;20040;-80
2022/10/24 12:44:34;;;;;;;9.95;5.05;;;;;;;;;;5112439;28;20028;-80
2022/10/24 12:47:01;;;;;;;11.20;4.20;;;;;;;;;;5112823;28;20549;-80
2022/10/24 12:49:27;;;;;;;9.25;3.90;;;;;;;;;;5112595;28;20034;-80
2022/10/24 12:51:54;;;;;;;7.82;3.90;;;;;;;;;;5112500;28;20498;-80
2022/10/24 12:54:40;;;;;;;9.77;4.57;;;;;;;;;;5112355;28;20056;-80
2022/10/24 12:57:07;;;;;;;;;;;;;;;;;;5112918;28;20031;-80
2022/10/24 12:59:33;;;;;;;9.43;4.82;;;;;;;;;;5112544;28;19903;-79
2022/10/24 13:02:18;;;;;;;8.43;4.35;;;;;;;;;;5112650;28;20106;-79
2022/10/24 13:05:03;;;;;;;9.32;4.50;;;;;;;;;;5112580;28;20023;-80
2022/10/24 13:07:47;;;;;;;12.70;4.53;;;;;;;;;;5112547;28;20111;-79
2022/10/24 13:10:16;;;;;;;9.63;3.78;;;;;;;;;;5112779;28;20032;-80
2022/10/24 13:13:01;;;;;;;7.95;4.10;;;;;;;;;;5112519;28;20057;-80
2022/10/24 13:15:45;;;;;;;12.77;5.28;;;;;;;;;;5112312;28;20066;-80
2022/10/24 13:18:30;;;;;;;9.18;4.40;;;;;;;;;;5112261;28;20044;-80
2022/10/24 13:20:56;;;;;;;;;;;;;;;;;;5112575;28;20024;-80
2022/10/24 13:23:24;;;;;;;9.43;4.72;;;;;;;;;;5112584;28;20320;-79
2022/10/24 13:25:58;;;;;;;11.35;5.18;;;;;;;;;;5093807;28;20393;-79
2022/10/24 13:28:24;;;;;;;;;;;;;;;;;;5112909;28;20020;-80
2022/10/24 13:30:52;;;;;;;9.38;5.13;;;;;;;;;;5112072;28;19946;-80
2022/10/24 13:33:36;;;;;;;12.50;5.50;;;;;;;;;;5112472;28;20402;-80
2022/10/24 13:36:08;;;;;;;10.63;5.32;;;;;;;;;;5115019;28;20466;-80
2022/10/24 13:38:40;;;;;;;9.65;5.13;;;;;;;;;;5116020;28;20081;-80
2022/10/24 13:41:10;;;;;;;9.95;5.53;;;;;;;;;;5116258;28;20031;-80
2022/10/24 13:43:38;;;;;;;14.20;7.47;;;;;;;;;;5116140;28;20042;-80
2022/10/24 13:46:08;;;;;;;14.30;7.43;;;;;;;;;;5116232;28;20031;-79
2022/10/24 13:48:36;;;;;;;13.02;6.45;;;;;;;;;;5116301;28;20027;-80
2022/10/24 13:51:05;;;;;;;11.88;6.38;;;;;;;;;;5115660;28;20055;-80
2022/10/24 13:53:35;;;;;;;10.38;5.70;;;;;;;;;;5116282;28;20118;-80
2022/10/24 13:56:09;;;;;;;16.75;7.15;;;;;;;;;;5115921;28;20038;-80
2022/10/24 13:58:39;;;;;;;11.68;5.55;;;;;;;;;;5115947;28;20028;-80
2022/10/24 14:01:10;;;;;;;12.57;7.15;;;;;;;;;;5115707;28;20019;-80
2022/10/24 14:03:36;;;;;;;12.95;6.68;;;;;;;;;;5115884;28;20386;-80
2022/10/24 14:06:04;;;;;;;10.38;7.03;;;;;;;;;;5115511;28;20036;-80
2022/10/24 14:08:37;;;;;;;11.98;6.85;;;;;;;;;;5115788;28;20363;-80
2022/10/24 14:11:07;;;;;;;11.90;5.93;;;;;;;;;;5115462;28;20020;-80
2022/10/24 14:13:36;;;;;;;15.23;7.18;;;;;;;;;;5115711;28;20588;-80
2022/10/24 14:16:03;;;;;;;9.23;6.35;;;;;;;;;;5115427;28;20108;-79
2022/10/24 14:18:30;;;;;;;17.63;7.22;;;;;;;;;;5097275;28;20507;-79
2022/10/24 14:20:58;;;;;;;13.77;8.18;;;;;;;;;;5115211;28;20030;-79
2022/10/24 14:23:33;;;;;;;12.07;8.35;;;;;;;;;;5115543;28;20123;-79
2022/10/24 14:26:14;;;;;;;11.57;7.45;;;;;;;;;;5115295;28;20023;-79
2022/10/24 14:28:45;;;;;;;14.65;7.63;;;;;;;;;;5127111;27;20023;-79
2022/10/24 14:31:23;;;;;;;12.07;8.07;;;;;;;;;;5115429;28;20379;-80
2022/10/24 14:33:50;;;;;;;15.07;7.75;;;;;;;;;;5115241;28;20023;-80
2022/10/24 14:36:21;;;;;;;15.00;7.90;;;;;;;;;;5115161;28;20027;-81
2022/10/24 14:38:49;;;;;;;10.73;7.45;;;;;;;;;;5115273;28;20039;-80